sensor_id;sensor_type;location;lat;lon;timestamp;P1;durP1;ratioP1;P2;durP2;ratioP2
20988;SDS011;10653;47.052;15.410;2023-07-09T00:01:50;9.83;;;7.70;;
20988;SDS011;10653;47.052;15.410;2023-07-09T00:04:16;7.33;;;6.50;;
20988;SDS011;10653;47.052;15.410;2023-07-09T00:06:42;8.30;;;7.50;;
20988;SDS011;10653;47.052;15.410;2023-07-09T00:09:12;9.83;;;8.70;;
20988;SDS011;10653;47.052;15.410;2023-07-09T00:11:39;8.03;;;7.20;;
20988;SDS011;10653;47.052;15.410;2023-07-09T00:14:05;8.57;;;7.27;;
20988;SDS011;10653;47.052;15.410;2023-07-09T00:16:31;11.60;;;8.37;;
20988;SDS011;10653;47.052;15.410;2023-07-09T00:18:57;7.40;;;6.60;;
20988;SDS011;10653;47.052;15.410;2023-07-09T00:21:23;8.60;;;7.80;;
20988;SDS011;10653;47.052;15.410;2023-07-09T00:23:50;8.30;;;7.50;;
20988;SDS011;10653;47.052;15.410;2023-07-09T00:26:17;9.07;;;8.27;;
20988;SDS011;10653;47.052;15.410;2023-07-09T00:28:48;9.33;;;8.03;;
20988;SDS011;10653;47.052;15.410;2023-07-09T00:31:14;7.10;;;6.50;;
20988;SDS011;10653;47.052;15.410;2023-07-09T00:33:41;9.90;;;7.50;;
20988;SDS011;10653;47.052;15.410;2023-07-09T00:36:10;8.13;;;7.43;;
20988;SDS011;10653;47.052;15.410;2023-07-09T00:38:39;10.23;;;7.43;;
20988;SDS011;10653;47.052;15.410;2023-07-09T00:41:20;7.93;;;7.13;;
20988;SDS011;10653;47.052;15.410;2023-07-09T00:43:47;8.40;;;7.60;;
20988;SDS011;10653;47.052;15.410;2023-07-09T00:48:39;7.63;;;6.93;;
20988;SDS011;10653;47.052;15.410;2023-07-09T00:51:09;8.50;;;7.60;;
20988;SDS011;10653;47.052;15.410;2023-07-09T00:53:37;10.13;;;6.90;;
20988;SDS011;10653;47.052;15.410;2023-07-09T00:56:12;11.10;;;7.53;;
20988;SDS011;10653;47.052;15.410;2023-07-09T00:58:39;9.50;;;7.70;;
20988;SDS011;10653;47.052;15.410;2023-07-09T01:01:09;13.33;;;7.50;;
20988;SDS011;10653;47.052;15.410;2023-07-09T01:03:47;8.70;;;7.83;;
20988;SDS011;10653;47.052;15.410;2023-07-09T01:06:15;7.77;;;7.00;;
20988;SDS011;10653;47.052;15.410;2023-07-09T01:08:41;8.83;;;7.30;;
20988;SDS011;10653;47.052;15.410;2023-07-09T01:11:16;7.87;;;7.07;;
20988;SDS011;10653;47.052;15.410;2023-07-09T01:13:46;7.93;;;6.63;;
20988;SDS011;10653;47.052;15.410;2023-07-09T01:16:12;9.13;;;8.23;;
20988;SDS011;10653;47.052;15.410;2023-07-09T01:18:40;7.80;;;7.10;;
20988;SDS011;10653;47.052;15.410;2023-07-09T01:21:09;7.70;;;7.10;;
20988;SDS011;10653;47.052;15.410;2023-07-09T01:23:42;7.13;;;6.50;;
20988;SDS011;10653;47.052;15.410;2023-07-09T01:26:19;8.03;;;7.30;;
20988;SDS011;10653;47.052;15.410;2023-07-09T01:28:45;8.97;;;7.60;;
20988;SDS011;10653;47.052;15.410;2023-07-09T01:31:12;7.73;;;7.03;;
20988;SDS011;10653;47.052;15.410;2023-07-09T01:33:40;7.40;;;6.70;;
20988;SDS011;10653;47.052;15.410;2023-07-09T01:36:07;7.93;;;7.13;;
20988;SDS011;10653;47.052;15.410;2023-07-09T01:38:33;8.53;;;7.60;;
20988;SDS011;10653;47.052;15.410;2023-07-09T01:40:59;7.90;;;6.93;;
20988;SDS011;10653;47.052;15.410;2023-07-09T01:43:25;7.70;;;6.90;;
20988;SDS011;10653;47.052;15.410;2023-07-09T01:45:52;8.17;;;7.47;;
20988;SDS011;10653;47.052;15.410;2023-07-09T01:48:18;8.80;;;7.90;;
20988;SDS011;10653;47.052;15.410;2023-07-09T01:50:45;8.10;;;7.30;;
20988;SDS011;10653;47.052;15.410;2023-07-09T01:53:12;8.10;;;7.30;;
20988;SDS011;10653;47.052;15.410;2023-07-09T01:55:38;8.07;;;7.37;;
20988;SDS011;10653;47.052;15.410;2023-07-09T01:58:04;12.07;;;8.37;;
20988;SDS011;10653;47.052;15.410;2023-07-09T02:00:32;8.27;;;7.47;;
20988;SDS011;10653;47.052;15.410;2023-07-09T02:03:00;9.10;;;7.40;;
20988;SDS011;10653;47.052;15.410;2023-07-09T02:05:27;7.57;;;6.87;;
20988;SDS011;10653;47.052;15.410;2023-07-09T02:07:53;7.20;;;6.50;;
20988;SDS011;10653;47.052;15.410;2023-07-09T02:10:20;8.17;;;7.40;;
20988;SDS011;10653;47.052;15.410;2023-07-09T02:12:46;7.40;;;6.70;;
20988;SDS011;10653;47.052;15.410;2023-07-09T02:15:13;7.63;;;6.93;;
20988;SDS011;10653;47.052;15.410;2023-07-09T02:17:39;7.50;;;6.80;;
20988;SDS011;10653;47.052;15.410;2023-07-09T02:20:05;8.63;;;7.73;;
20988;SDS011;10653;47.052;15.410;2023-07-09T02:22:32;9.27;;;7.97;;
20988;SDS011;10653;47.052;15.410;2023-07-09T02:24:58;7.43;;;6.60;;
20988;SDS011;10653;47.052;15.410;2023-07-09T02:27:25;7.67;;;6.97;;
20988;SDS011;10653;47.052;15.410;2023-07-09T02:29:51;7.60;;;6.90;;
20988;SDS011;10653;47.052;15.410;2023-07-09T02:32:21;7.97;;;7.03;;
20988;SDS011;10653;47.052;15.410;2023-07-09T02:34:47;7.43;;;6.80;;
20988;SDS011;10653;47.052;15.410;2023-07-09T02:37:14;7.07;;;6.47;;
20988;SDS011;10653;47.052;15.410;2023-07-09T02:39:41;10.30;;;7.50;;
20988;SDS011;10653;47.052;15.410;2023-07-09T02:42:11;7.93;;;7.23;;
20988;SDS011;10653;47.052;15.410;2023-07-09T02:44:37;7.60;;;6.73;;
20988;SDS011;10653;47.052;15.410;2023-07-09T02:47:04;8.27;;;6.97;;
20988;SDS011;10653;47.052;15.410;2023-07-09T02:49:30;10.13;;;7.43;;
20988;SDS011;10653;47.052;15.410;2023-07-09T02:51:56;12.30;;;7.50;;
20988;SDS011;10653;47.052;15.410;2023-07-09T02:54:22;7.90;;;6.33;;
20988;SDS011;10653;47.052;15.410;2023-07-09T02:56:48;7.80;;;7.07;;
20988;SDS011;10653;47.052;15.410;2023-07-09T02:59:14;7.23;;;6.50;;
20988;SDS011;10653;47.052;15.410;2023-07-09T03:01:40;8.67;;;7.77;;
20988;SDS011;10653;47.052;15.410;2023-07-09T03:04:07;7.90;;;7.10;;
20988;SDS011;10653;47.052;15.410;2023-07-09T03:06:35;7.20;;;6.60;;
20988;SDS011;10653;47.052;15.410;2023-07-09T03:09:01;8.67;;;6.23;;
20988;SDS011;10653;47.052;15.410;2023-07-09T03:11:28;12.53;;;7.17;;
20988;SDS011;10653;47.052;15.410;2023-07-09T03:13:55;8.00;;;6.80;;
20988;SDS011;10653;47.052;15.410;2023-07-09T03:16:22;7.00;;;6.37;;
20988;SDS011;10653;47.052;15.410;2023-07-09T03:18:48;7.53;;;6.77;;
20988;SDS011;10653;47.052;15.410;2023-07-09T03:21:14;7.47;;;6.60;;
20988;SDS011;10653;47.052;15.410;2023-07-09T03:23:40;12.30;;;7.07;;
20988;SDS011;10653;47.052;15.410;2023-07-09T03:26:07;8.70;;;7.80;;
20988;SDS011;10653;47.052;15.410;2023-07-09T03:28:33;7.60;;;6.90;;
20988;SDS011;10653;47.052;15.410;2023-07-09T03:30:59;9.15;;;8.25;;
20988;SDS011;10653;47.052;15.410;2023-07-09T03:33:25;8.40;;;7.30;;
20988;SDS011;10653;47.052;15.410;2023-07-09T03:35:51;7.73;;;6.93;;
20988;SDS011;10653;47.052;15.410;2023-07-09T03:38:17;8.43;;;7.40;;
20988;SDS011;10653;47.052;15.410;2023-07-09T03:40:44;8.20;;;7.40;;
20988;SDS011;10653;47.052;15.410;2023-07-09T03:43:10;8.97;;;7.27;;
20988;SDS011;10653;47.052;15.410;2023-07-09T03:45:36;7.30;;;6.60;;
20988;SDS011;10653;47.052;15.410;2023-07-09T03:48:04;8.23;;;7.47;;
20988;SDS011;10653;47.052;15.410;2023-07-09T03:50:30;8.07;;;6.87;;
20988;SDS011;10653;47.052;15.410;2023-07-09T03:52:56;7.73;;;6.60;;
20988;SDS011;10653;47.052;15.410;2023-07-09T03:55:22;7.20;;;6.60;;
20988;SDS011;10653;47.052;15.410;2023-07-09T03:57:51;8.40;;;7.60;;
20988;SDS011;10653;47.052;15.410;2023-07-09T04:00:17;7.07;;;6.33;;
20988;SDS011;10653;47.052;15.410;2023-07-09T04:02:43;6.97;;;6.30;;
20988;SDS011;10653;47.052;15.410;2023-07-09T04:05:09;9.13;;;7.83;;
20988;SDS011;10653;47.052;15.410;2023-07-09T04:07:36;8.00;;;7.20;;
20988;SDS011;10653;47.052;15.410;2023-07-09T04:10:02;8.90;;;7.70;;
20988;SDS011;10653;47.052;15.410;2023-07-09T04:12:29;7.77;;;7.07;;
20988;SDS011;10653;47.052;15.410;2023-07-09T04:14:55;10.13;;;8.10;;
20988;SDS011;10653;47.052;15.410;2023-07-09T04:17:21;8.43;;;7.63;;
20988;SDS011;10653;47.052;15.410;2023-07-09T04:19:48;8.90;;;6.87;;
20988;SDS011;10653;47.052;15.410;2023-07-09T04:22:14;7.40;;;6.77;;
20988;SDS011;10653;47.052;15.410;2023-07-09T04:24:40;8.13;;;7.33;;
20988;SDS011;10653;47.052;15.410;2023-07-09T04:27:06;11.17;;;8.33;;
20988;SDS011;10653;47.052;15.410;2023-07-09T04:29:33;8.47;;;7.67;;
20988;SDS011;10653;47.052;15.410;2023-07-09T04:32:00;9.93;;;8.13;;
20988;SDS011;10653;47.052;15.410;2023-07-09T04:34:26;8.93;;;8.13;;
20988;SDS011;10653;47.052;15.410;2023-07-09T04:36:52;8.87;;;8.10;;
20988;SDS011;10653;47.052;15.410;2023-07-09T04:39:18;8.10;;;7.30;;
20988;SDS011;10653;47.052;15.410;2023-07-09T04:41:44;9.63;;;8.03;;
20988;SDS011;10653;47.052;15.410;2023-07-09T04:44:10;8.67;;;7.80;;
20988;SDS011;10653;47.052;15.410;2023-07-09T04:46:36;9.33;;;8.43;;
20988;SDS011;10653;47.052;15.410;2023-07-09T04:49:03;10.00;;;8.27;;
20988;SDS011;10653;47.052;15.410;2023-07-09T04:51:29;8.97;;;8.20;;
20988;SDS011;10653;47.052;15.410;2023-07-09T04:53:55;10.10;;;9.10;;
20988;SDS011;10653;47.052;15.410;2023-07-09T04:56:21;9.03;;;8.20;;
20988;SDS011;10653;47.052;15.410;2023-07-09T04:58:47;9.43;;;8.50;;
20988;SDS011;10653;47.052;15.410;2023-07-09T05:01:13;10.23;;;9.33;;
20988;SDS011;10653;47.052;15.410;2023-07-09T05:03:39;9.07;;;8.17;;
20988;SDS011;10653;47.052;15.410;2023-07-09T05:06:05;9.80;;;8.43;;
20988;SDS011;10653;47.052;15.410;2023-07-09T05:08:31;8.90;;;8.00;;
20988;SDS011;10653;47.052;15.410;2023-07-09T05:10:57;9.60;;;8.60;;
20988;SDS011;10653;47.052;15.410;2023-07-09T05:13:24;10.70;;;8.67;;
20988;SDS011;10653;47.052;15.410;2023-07-09T05:15:50;12.33;;;8.03;;
20988;SDS011;10653;47.052;15.410;2023-07-09T05:18:17;9.10;;;8.20;;
20988;SDS011;10653;47.052;15.410;2023-07-09T05:20:44;9.83;;;8.83;;
20988;SDS011;10653;47.052;15.410;2023-07-09T05:23:10;10.40;;;8.73;;
20988;SDS011;10653;47.052;15.410;2023-07-09T05:25:36;11.03;;;8.40;;
20988;SDS011;10653;47.052;15.410;2023-07-09T05:28:02;9.73;;;8.53;;
20988;SDS011;10653;47.052;15.410;2023-07-09T05:30:28;7.97;;;7.23;;
20988;SDS011;10653;47.052;15.410;2023-07-09T05:32:54;10.43;;;8.70;;
20988;SDS011;10653;47.052;15.410;2023-07-09T05:35:24;9.40;;;8.60;;
20988;SDS011;10653;47.052;15.410;2023-07-09T05:37:51;10.47;;;9.00;;
20988;SDS011;10653;47.052;15.410;2023-07-09T05:40:17;10.63;;;8.27;;
20988;SDS011;10653;47.052;15.410;2023-07-09T05:42:43;9.07;;;8.20;;
20988;SDS011;10653;47.052;15.410;2023-07-09T05:45:09;13.33;;;8.40;;
20988;SDS011;10653;47.052;15.410;2023-07-09T05:47:35;9.87;;;8.87;;
20988;SDS011;10653;47.052;15.410;2023-07-09T05:50:02;10.37;;;9.27;;
20988;SDS011;10653;47.052;15.410;2023-07-09T05:52:28;9.37;;;8.57;;
20988;SDS011;10653;47.052;15.410;2023-07-09T05:54:54;8.97;;;8.07;;
20988;SDS011;10653;47.052;15.410;2023-07-09T05:57:21;9.47;;;8.50;;
20988;SDS011;10653;47.052;15.410;2023-07-09T05:59:47;8.80;;;8.00;;
20988;SDS011;10653;47.052;15.410;2023-07-09T06:02:14;14.10;;;9.80;;
20988;SDS011;10653;47.052;15.410;2023-07-09T06:04:40;8.80;;;7.90;;
20988;SDS011;10653;47.052;15.410;2023-07-09T06:07:07;8.80;;;7.77;;
20988;SDS011;10653;47.052;15.410;2023-07-09T06:09:34;9.70;;;8.60;;
20988;SDS011;10653;47.052;15.410;2023-07-09T06:12:00;8.57;;;7.80;;
20988;SDS011;10653;47.052;15.410;2023-07-09T06:14:26;8.27;;;7.50;;
20988;SDS011;10653;47.052;15.410;2023-07-09T06:16:52;9.43;;;8.53;;
20988;SDS011;10653;47.052;15.410;2023-07-09T06:19:18;10.77;;;9.07;;
20988;SDS011;10653;47.052;15.410;2023-07-09T06:21:44;9.10;;;8.30;;
20988;SDS011;10653;47.052;15.410;2023-07-09T06:24:10;9.17;;;8.27;;
20988;SDS011;10653;47.052;15.410;2023-07-09T06:26:36;9.73;;;8.80;;
20988;SDS011;10653;47.052;15.410;2023-07-09T06:29:02;10.30;;;9.40;;
20988;SDS011;10653;47.052;15.410;2023-07-09T06:31:29;9.53;;;8.63;;
20988;SDS011;10653;47.052;15.410;2023-07-09T06:33:55;9.97;;;9.00;;
20988;SDS011;10653;47.052;15.410;2023-07-09T06:36:21;9.70;;;8.80;;
20988;SDS011;10653;47.052;15.410;2023-07-09T06:38:47;9.07;;;8.20;;
20988;SDS011;10653;47.052;15.410;2023-07-09T06:41:13;10.17;;;9.13;;
20988;SDS011;10653;47.052;15.410;2023-07-09T06:43:40;8.70;;;7.40;;
20988;SDS011;10653;47.052;15.410;2023-07-09T06:46:07;10.50;;;9.40;;
20988;SDS011;10653;47.052;15.410;2023-07-09T06:48:34;10.03;;;9.03;;
20988;SDS011;10653;47.052;15.410;2023-07-09T06:51:00;9.17;;;8.33;;
20988;SDS011;10653;47.052;15.410;2023-07-09T06:53:26;10.73;;;9.27;;
20988;SDS011;10653;47.052;15.410;2023-07-09T06:55:52;10.07;;;8.60;;
20988;SDS011;10653;47.052;15.410;2023-07-09T06:58:20;11.23;;;10.23;;
20988;SDS011;10653;47.052;15.410;2023-07-09T07:00:48;9.73;;;8.63;;
20988;SDS011;10653;47.052;15.410;2023-07-09T07:03:14;10.00;;;9.00;;
20988;SDS011;10653;47.052;15.410;2023-07-09T07:05:43;9.47;;;8.60;;
20988;SDS011;10653;47.052;15.410;2023-07-09T07:08:10;9.73;;;8.83;;
20988;SDS011;10653;47.052;15.410;2023-07-09T07:10:36;13.43;;;9.20;;
20988;SDS011;10653;47.052;15.410;2023-07-09T07:13:02;11.70;;;8.70;;
20988;SDS011;10653;47.052;15.410;2023-07-09T07:15:28;10.33;;;8.60;;
20988;SDS011;10653;47.052;15.410;2023-07-09T07:17:54;10.23;;;9.13;;
20988;SDS011;10653;47.052;15.410;2023-07-09T07:20:20;18.70;;;10.23;;
20988;SDS011;10653;47.052;15.410;2023-07-09T07:22:46;10.27;;;9.27;;
20988;SDS011;10653;47.052;15.410;2023-07-09T07:25:12;10.07;;;9.17;;
20988;SDS011;10653;47.052;15.410;2023-07-09T07:27:38;11.73;;;9.27;;
20988;SDS011;10653;47.052;15.410;2023-07-09T07:30:06;9.73;;;8.83;;
20988;SDS011;10653;47.052;15.410;2023-07-09T07:32:34;9.00;;;8.13;;
20988;SDS011;10653;47.052;15.410;2023-07-09T07:35:00;9.20;;;8.40;;
20988;SDS011;10653;47.052;15.410;2023-07-09T07:37:26;9.33;;;8.37;;
20988;SDS011;10653;47.052;15.410;2023-07-09T07:39:52;10.33;;;9.43;;
20988;SDS011;10653;47.052;15.410;2023-07-09T07:42:18;9.90;;;8.90;;
20988;SDS011;10653;47.052;15.410;2023-07-09T07:44:44;9.50;;;8.57;;
20988;SDS011;10653;47.052;15.410;2023-07-09T07:47:11;10.20;;;9.30;;
20988;SDS011;10653;47.052;15.410;2023-07-09T07:49:37;11.53;;;9.50;;
20988;SDS011;10653;47.052;15.410;2023-07-09T07:52:03;13.03;;;9.73;;
20988;SDS011;10653;47.052;15.410;2023-07-09T07:54:29;10.73;;;9.63;;
20988;SDS011;10653;47.052;15.410;2023-07-09T07:56:56;9.80;;;8.90;;
20988;SDS011;10653;47.052;15.410;2023-07-09T07:59:23;10.10;;;9.13;;
20988;SDS011;10653;47.052;15.410;2023-07-09T08:01:49;9.40;;;8.50;;
20988;SDS011;10653;47.052;15.410;2023-07-09T08:04:15;10.17;;;9.27;;
20988;SDS011;10653;47.052;15.410;2023-07-09T08:06:41;10.90;;;9.90;;
20988;SDS011;10653;47.052;15.410;2023-07-09T08:09:07;10.20;;;9.20;;
20988;SDS011;10653;47.052;15.410;2023-07-09T08:11:33;10.70;;;9.60;;
20988;SDS011;10653;47.052;15.410;2023-07-09T08:13:59;10.33;;;9.40;;
20988;SDS011;10653;47.052;15.410;2023-07-09T08:16:26;11.20;;;10.10;;
20988;SDS011;10653;47.052;15.410;2023-07-09T08:18:52;10.33;;;9.43;;
20988;SDS011;10653;47.052;15.410;2023-07-09T08:21:18;10.73;;;9.83;;
20988;SDS011;10653;47.052;15.410;2023-07-09T08:23:44;11.30;;;10.20;;
20988;SDS011;10653;47.052;15.410;2023-07-09T08:26:11;11.40;;;10.30;;
20988;SDS011;10653;47.052;15.410;2023-07-09T08:28:37;11.50;;;10.40;;
20988;SDS011;10653;47.052;15.410;2023-07-09T08:31:03;10.80;;;9.80;;
20988;SDS011;10653;47.052;15.410;2023-07-09T08:33:29;10.87;;;9.77;;
20988;SDS011;10653;47.052;15.410;2023-07-09T08:35:56;10.77;;;9.70;;
20988;SDS011;10653;47.052;15.410;2023-07-09T08:38:22;9.93;;;9.03;;
20988;SDS011;10653;47.052;15.410;2023-07-09T08:40:50;10.10;;;9.10;;
20988;SDS011;10653;47.052;15.410;2023-07-09T08:46:20;10.50;;;9.50;;
20988;SDS011;10653;47.052;15.410;2023-07-09T08:48:48;9.87;;;9.07;;
20988;SDS011;10653;47.052;15.410;2023-07-09T08:54:17;10.73;;;9.73;;
20988;SDS011;10653;47.052;15.410;2023-07-09T08:56:47;10.90;;;9.70;;
20988;SDS011;10653;47.052;15.410;2023-07-09T08:59:15;11.87;;;10.73;;
20988;SDS011;10653;47.052;15.410;2023-07-09T09:01:51;11.13;;;10.20;;
20988;SDS011;10653;47.052;15.410;2023-07-09T09:04:24;11.13;;;10.00;;
20988;SDS011;10653;47.052;15.410;2023-07-09T09:06:51;10.70;;;9.73;;
20988;SDS011;10653;47.052;15.410;2023-07-09T09:11:51;10.67;;;9.70;;
20988;SDS011;10653;47.052;15.410;2023-07-09T09:16:49;9.70;;;8.80;;
20988;SDS011;10653;47.052;15.410;2023-07-09T09:19:21;10.70;;;9.70;;
20988;SDS011;10653;47.052;15.410;2023-07-09T09:21:48;11.50;;;10.50;;
20988;SDS011;10653;47.052;15.410;2023-07-09T09:26:43;10.20;;;9.20;;
20988;SDS011;10653;47.052;15.410;2023-07-09T09:29:10;10.50;;;9.50;;
20988;SDS011;10653;47.052;15.410;2023-07-09T09:31:36;9.90;;;9.00;;
20988;SDS011;10653;47.052;15.410;2023-07-09T09:34:02;11.20;;;9.50;;
20988;SDS011;10653;47.052;15.410;2023-07-09T09:36:30;11.30;;;10.20;;
20988;SDS011;10653;47.052;15.410;2023-07-09T09:39:01;10.20;;;9.10;;
20988;SDS011;10653;47.052;15.410;2023-07-09T09:41:30;13.00;;;9.77;;
20988;SDS011;10653;47.052;15.410;2023-07-09T09:43:57;10.63;;;9.60;;
20988;SDS011;10653;47.052;15.410;2023-07-09T09:46:24;12.57;;;10.20;;
20988;SDS011;10653;47.052;15.410;2023-07-09T09:48:52;10.90;;;10.00;;
20988;SDS011;10653;47.052;15.410;2023-07-09T09:51:19;10.93;;;10.03;;
20988;SDS011;10653;47.052;15.410;2023-07-09T09:53:49;9.60;;;8.60;;
20988;SDS011;10653;47.052;15.410;2023-07-09T09:59:16;9.17;;;8.37;;
20988;SDS011;10653;47.052;15.410;2023-07-09T10:01:43;9.60;;;8.33;;
20988;SDS011;10653;47.052;15.410;2023-07-09T10:04:10;8.80;;;8.10;;
20988;SDS011;10653;47.052;15.410;2023-07-09T10:06:41;9.87;;;8.97;;
20988;SDS011;10653;47.052;15.410;2023-07-09T10:09:28;9.23;;;8.43;;
20988;SDS011;10653;47.052;15.410;2023-07-09T10:12:13;9.57;;;8.73;;
20988;SDS011;10653;47.052;15.410;2023-07-09T10:17:23;9.97;;;9.07;;
20988;SDS011;10653;47.052;15.410;2023-07-09T10:19:57;10.77;;;8.70;;
20988;SDS011;10653;47.052;15.410;2023-07-09T10:32:56;9.93;;;8.93;;
20988;SDS011;10653;47.052;15.410;2023-07-09T10:35:37;9.63;;;8.77;;
20988;SDS011;10653;47.052;15.410;2023-07-09T10:38:07;9.93;;;9.07;;
20988;SDS011;10653;47.052;15.410;2023-07-09T10:40:39;10.93;;;10.03;;
20988;SDS011;10653;47.052;15.410;2023-07-09T10:43:08;9.47;;;8.57;;
20988;SDS011;10653;47.052;15.410;2023-07-09T10:45:41;10.07;;;9.27;;
20988;SDS011;10653;47.052;15.410;2023-07-09T10:48:31;8.90;;;8.10;;
20988;SDS011;10653;47.052;15.410;2023-07-09T10:50:54;10.43;;;8.03;;
20988;SDS011;10653;47.052;15.410;2023-07-09T10:53:38;9.20;;;8.30;;
20988;SDS011;10653;47.052;15.410;2023-07-09T10:56:10;8.03;;;7.40;;
20988;SDS011;10653;47.052;15.410;2023-07-09T11:01:26;9.07;;;8.23;;
20988;SDS011;10653;47.052;15.410;2023-07-09T11:03:55;7.73;;;7.03;;
20988;SDS011;10653;47.052;15.410;2023-07-09T11:06:25;8.70;;;7.90;;
20988;SDS011;10653;47.052;15.410;2023-07-09T11:08:52;9.63;;;7.80;;
20988;SDS011;10653;47.052;15.410;2023-07-09T11:13:50;9.80;;;9.00;;
20988;SDS011;10653;47.052;15.410;2023-07-09T11:16:27;9.00;;;8.30;;
20988;SDS011;10653;47.052;15.410;2023-07-09T11:18:55;8.67;;;6.90;;
20988;SDS011;10653;47.052;15.410;2023-07-09T11:21:22;9.30;;;7.90;;
20988;SDS011;10653;47.052;15.410;2023-07-09T11:23:56;8.70;;;7.80;;
20988;SDS011;10653;47.052;15.410;2023-07-09T11:26:26;8.87;;;8.07;;
20988;SDS011;10653;47.052;15.410;2023-07-09T11:29:08;9.00;;;8.20;;
20988;SDS011;10653;47.052;15.410;2023-07-09T11:31:36;8.30;;;7.60;;
20988;SDS011;10653;47.052;15.410;2023-07-09T11:36:32;8.80;;;8.10;;
20988;SDS011;10653;47.052;15.410;2023-07-09T11:38:59;8.50;;;7.80;;
20988;SDS011;10653;47.052;15.410;2023-07-09T11:44:04;8.13;;;7.33;;
20988;SDS011;10653;47.052;15.410;2023-07-09T11:46:30;7.70;;;7.10;;
20988;SDS011;10653;47.052;15.410;2023-07-09T11:48:57;7.70;;;7.10;;
20988;SDS011;10653;47.052;15.410;2023-07-09T11:54:08;8.40;;;7.77;;
20988;SDS011;10653;47.052;15.410;2023-07-09T11:56:37;7.53;;;6.73;;
20988;SDS011;10653;47.052;15.410;2023-07-09T11:59:03;7.77;;;7.07;;
20988;SDS011;10653;47.052;15.410;2023-07-09T12:01:34;8.57;;;7.30;;
20988;SDS011;10653;47.052;15.410;2023-07-09T12:04:04;7.40;;;6.80;;
20988;SDS011;10653;47.052;15.410;2023-07-09T12:06:31;8.10;;;7.40;;
20988;SDS011;10653;47.052;15.410;2023-07-09T12:08:58;7.73;;;7.00;;
20988;SDS011;10653;47.052;15.410;2023-07-09T12:11:31;7.87;;;7.17;;
20988;SDS011;10653;47.052;15.410;2023-07-09T12:14:01;8.03;;;7.33;;
20988;SDS011;10653;47.052;15.410;2023-07-09T12:16:28;8.53;;;7.73;;
20988;SDS011;10653;47.052;15.410;2023-07-09T12:18:54;8.40;;;7.43;;
20988;SDS011;10653;47.052;15.410;2023-07-09T12:21:21;8.93;;;8.03;;
20988;SDS011;10653;47.052;15.410;2023-07-09T12:23:48;7.30;;;6.70;;
20988;SDS011;10653;47.052;15.410;2023-07-09T12:26:15;7.03;;;6.53;;
20988;SDS011;10653;47.052;15.410;2023-07-09T12:28:42;8.40;;;7.60;;
20988;SDS011;10653;47.052;15.410;2023-07-09T12:31:12;7.80;;;7.20;;
20988;SDS011;10653;47.052;15.410;2023-07-09T12:33:45;7.17;;;6.47;;
20988;SDS011;10653;47.052;15.410;2023-07-09T12:36:12;7.53;;;6.93;;
20988;SDS011;10653;47.052;15.410;2023-07-09T12:38:40;8.30;;;7.50;;
20988;SDS011;10653;47.052;15.410;2023-07-09T12:41:10;7.93;;;7.23;;
20988;SDS011;10653;47.052;15.410;2023-07-09T12:43:42;7.70;;;7.00;;
20988;SDS011;10653;47.052;15.410;2023-07-09T12:46:08;8.27;;;7.47;;
20988;SDS011;10653;47.052;15.410;2023-07-09T12:48:34;6.63;;;5.90;;
20988;SDS011;10653;47.052;15.410;2023-07-09T12:51:00;8.47;;;7.67;;
20988;SDS011;10653;47.052;15.410;2023-07-09T12:53:27;8.13;;;7.40;;
20988;SDS011;10653;47.052;15.410;2023-07-09T12:55:56;8.03;;;7.27;;
20988;SDS011;10653;47.052;15.410;2023-07-09T12:58:36;8.50;;;7.80;;
20988;SDS011;10653;47.052;15.410;2023-07-09T13:01:13;9.40;;;8.50;;
20988;SDS011;10653;47.052;15.410;2023-07-09T13:03:40;8.07;;;7.37;;
20988;SDS011;10653;47.052;15.410;2023-07-09T13:06:20;8.90;;;8.10;;
20988;SDS011;10653;47.052;15.410;2023-07-09T13:08:54;7.63;;;6.93;;
20988;SDS011;10653;47.052;15.410;2023-07-09T13:11:20;7.73;;;7.10;;
20988;SDS011;10653;47.052;15.410;2023-07-09T13:13:53;8.43;;;7.73;;
20988;SDS011;10653;47.052;15.410;2023-07-09T13:16:19;8.10;;;7.40;;
20988;SDS011;10653;47.052;15.410;2023-07-09T13:18:45;8.10;;;7.40;;
20988;SDS011;10653;47.052;15.410;2023-07-09T13:21:18;9.60;;;8.70;;
20988;SDS011;10653;47.052;15.410;2023-07-09T13:23:44;8.30;;;7.60;;
20988;SDS011;10653;47.052;15.410;2023-07-09T13:26:12;7.57;;;6.87;;
20988;SDS011;10653;47.052;15.410;2023-07-09T13:28:37;9.63;;;7.70;;
20988;SDS011;10653;47.052;15.410;2023-07-09T13:31:08;8.40;;;7.70;;
20988;SDS011;10653;47.052;15.410;2023-07-09T13:33:36;8.10;;;7.40;;
20988;SDS011;10653;47.052;15.410;2023-07-09T13:36:02;8.63;;;7.70;;
20988;SDS011;10653;47.052;15.410;2023-07-09T13:38:28;8.00;;;7.30;;
20988;SDS011;10653;47.052;15.410;2023-07-09T13:40:55;8.93;;;8.13;;
20988;SDS011;10653;47.052;15.410;2023-07-09T13:43:27;8.00;;;7.30;;
20988;SDS011;10653;47.052;15.410;2023-07-09T13:45:54;7.77;;;7.13;;
20988;SDS011;10653;47.052;15.410;2023-07-09T13:48:22;7.80;;;7.10;;
20988;SDS011;10653;47.052;15.410;2023-07-09T13:50:49;7.93;;;7.23;;
20988;SDS011;10653;47.052;15.410;2023-07-09T13:53:16;7.83;;;7.23;;
20988;SDS011;10653;47.052;15.410;2023-07-09T13:55:43;8.20;;;7.40;;
20988;SDS011;10653;47.052;15.410;2023-07-09T13:58:12;7.93;;;7.33;;
20988;SDS011;10653;47.052;15.410;2023-07-09T14:00:40;9.33;;;7.80;;
20988;SDS011;10653;47.052;15.410;2023-07-09T14:03:12;8.50;;;7.70;;
20988;SDS011;10653;47.052;15.410;2023-07-09T14:05:39;7.70;;;7.00;;
20988;SDS011;10653;47.052;15.410;2023-07-09T14:08:07;8.13;;;7.43;;
20988;SDS011;10653;47.052;15.410;2023-07-09T14:10:33;8.90;;;8.10;;
20988;SDS011;10653;47.052;15.410;2023-07-09T14:12:59;10.50;;;8.20;;
20988;SDS011;10653;47.052;15.410;2023-07-09T14:15:27;7.90;;;7.10;;
20988;SDS011;10653;47.052;15.410;2023-07-09T14:17:53;8.27;;;7.60;;
20988;SDS011;10653;47.052;15.410;2023-07-09T14:20:21;7.40;;;6.80;;
20988;SDS011;10653;47.052;15.410;2023-07-09T14:22:47;8.77;;;7.97;;
20988;SDS011;10653;47.052;15.410;2023-07-09T14:25:21;7.87;;;7.17;;
20988;SDS011;10653;47.052;15.410;2023-07-09T14:27:51;8.07;;;7.37;;
20988;SDS011;10653;47.052;15.410;2023-07-09T14:30:18;10.43;;;6.93;;
20988;SDS011;10653;47.052;15.410;2023-07-09T14:32:46;8.20;;;7.40;;
20988;SDS011;10653;47.052;15.410;2023-07-09T14:37:41;8.20;;;7.50;;
20988;SDS011;10653;47.052;15.410;2023-07-09T14:40:08;7.60;;;7.00;;
20988;SDS011;10653;47.052;15.410;2023-07-09T14:42:34;7.40;;;6.70;;
20988;SDS011;10653;47.052;15.410;2023-07-09T14:45:01;8.17;;;7.33;;
20988;SDS011;10653;47.052;15.410;2023-07-09T14:47:28;8.50;;;7.77;;
20988;SDS011;10653;47.052;15.410;2023-07-09T14:49:54;8.30;;;6.77;;
20988;SDS011;10653;47.052;15.410;2023-07-09T14:52:20;7.90;;;7.30;;
20988;SDS011;10653;47.052;15.410;2023-07-09T14:54:47;9.13;;;7.60;;
20988;SDS011;10653;47.052;15.410;2023-07-09T14:59:46;7.67;;;6.97;;
20988;SDS011;10653;47.052;15.410;2023-07-09T15:02:54;7.50;;;6.90;;
20988;SDS011;10653;47.052;15.410;2023-07-09T15:05:02;8.60;;;7.80;;
20988;SDS011;10653;47.052;15.410;2023-07-09T15:07:29;7.97;;;7.17;;
20988;SDS011;10653;47.052;15.410;2023-07-09T15:09:59;8.53;;;7.80;;
20988;SDS011;10653;47.052;15.410;2023-07-09T15:12:30;8.17;;;7.47;;
20988;SDS011;10653;47.052;15.410;2023-07-09T15:15:17;7.53;;;6.83;;
20988;SDS011;10653;47.052;15.410;2023-07-09T15:17:44;7.50;;;6.80;;
20988;SDS011;10653;47.052;15.410;2023-07-09T15:20:20;9.43;;;7.10;;
20988;SDS011;10653;47.052;15.410;2023-07-09T15:22:47;7.83;;;6.97;;
20988;SDS011;10653;47.052;15.410;2023-07-09T15:25:19;8.53;;;7.73;;